sensor_id;sensor_type;location;lat;lon;timestamp;P1;durP1;ratioP1;P2;durP2;ratioP2
70008;SDS011;59542;37.950;-122.338;2023-10-31T00:01:53;2.65;;;1.77;;
70008;SDS011;59542;37.950;-122.338;2023-10-31T00:04:20;3.60;;;2.10;;
70008;SDS011;59542;37.950;-122.338;2023-10-31T00:06:47;3.55;;;1.90;;
70008;SDS011;59542;37.950;-122.338;2023-10-31T00:09:13;2.25;;;1.88;;
70008;SDS011;59542;37.950;-122.338;2023-10-31T00:11:41;5.43;;;1.90;;
70008;SDS011;59542;37.950;-122.338;2023-10-31T00:14:09;2.97;;;2.00;;
70008;SDS011;59542;37.950;-122.338;2023-10-31T00:16:35;3.45;;;1.90;;
70008;SDS011;59542;37.950;-122.338;2023-10-31T00:19:02;5.40;;;2.35;;
70008;SDS011;59542;37.950;-122.338;2023-10-31T00:21:28;3.78;;;2.22;;
70008;SDS011;59542;37.950;-122.338;2023-10-31T00:23:54;4.22;;;2.40;;
70008;SDS011;59542;37.950;-122.338;2023-10-31T00:26:20;4.05;;;1.92;;
70008;SDS011;59542;37.950;-122.338;2023-10-31T00:28:47;3.25;;;2.42;;
70008;SDS011;59542;37.950;-122.338;2023-10-31T00:31:13;5.47;;;2.40;;
70008;SDS011;59542;37.950;-122.338;2023-10-31T00:33:39;3.05;;;1.77;;
70008;SDS011;59542;37.950;-122.338;2023-10-31T00:36:06;3.53;;;2.05;;
70008;SDS011;59542;37.950;-122.338;2023-10-31T00:38:33;3.38;;;1.80;;
70008;SDS011;59542;37.950;-122.338;2023-10-31T00:40:59;3.92;;;2.42;;
70008;SDS011;59542;37.950;-122.338;2023-10-31T00:43:26;7.45;;;2.22;;
70008;SDS011;59542;37.950;-122.338;2023-10-31T00:45:52;3.45;;;1.98;;
70008;SDS011;59542;37.950;-122.338;2023-10-31T00:48:19;4.97;;;2.05;;
70008;SDS011;59542;37.950;-122.338;2023-10-31T00:50:45;4.13;;;2.15;;
70008;SDS011;59542;37.950;-122.338;2023-10-31T00:53:11;4.20;;;2.10;;
70008;SDS011;59542;37.950;-122.338;2023-10-31T00:55:40;2.63;;;1.90;;
70008;SDS011;59542;37.950;-122.338;2023-10-31T00:58:06;5.85;;;2.53;;
70008;SDS011;59542;37.950;-122.338;2023-10-31T01:00:32;3.53;;;2.38;;
70008;SDS011;59542;37.950;-122.338;2023-10-31T01:02:59;3.70;;;2.22;;
70008;SDS011;59542;37.950;-122.338;2023-10-31T01:05:26;3.17;;;2.38;;
70008;SDS011;59542;37.950;-122.338;2023-10-31T01:07:53;5.15;;;2.70;;
70008;SDS011;59542;37.950;-122.338;2023-10-31T01:10:20;6.30;;;2.83;;
70008;SDS011;59542;37.950;-122.338;2023-10-31T01:12:46;3.90;;;2.25;;
70008;SDS011;59542;37.950;-122.338;2023-10-31T01:15:13;5.97;;;2.35;;
70008;SDS011;59542;37.950;-122.338;2023-10-31T01:17:39;8.15;;;2.92;;
70008;SDS011;59542;37.950;-122.338;2023-10-31T01:20:06;9.05;;;3.15;;
70008;SDS011;59542;37.950;-122.338;2023-10-31T01:22:33;4.15;;;2.70;;
70008;SDS011;59542;37.950;-122.338;2023-10-31T01:24:59;4.18;;;2.72;;
70008;SDS011;59542;37.950;-122.338;2023-10-31T01:27:26;4.47;;;2.42;;
70008;SDS011;59542;37.950;-122.338;2023-10-31T01:29:53;6.70;;;2.63;;
70008;SDS011;59542;37.950;-122.338;2023-10-31T01:32:19;4.63;;;2.63;;
70008;SDS011;59542;37.950;-122.338;2023-10-31T01:34:45;6.63;;;2.58;;
70008;SDS011;59542;37.950;-122.338;2023-10-31T01:37:11;5.07;;;2.80;;
70008;SDS011;59542;37.950;-122.338;2023-10-31T01:39:39;4.85;;;2.78;;
70008;SDS011;59542;37.950;-122.338;2023-10-31T01:42:06;3.28;;;2.00;;
70008;SDS011;59542;37.950;-122.338;2023-10-31T01:44:33;3.33;;;2.20;;
70008;SDS011;59542;37.950;-122.338;2023-10-31T01:46:59;4.78;;;2.30;;
70008;SDS011;59542;37.950;-122.338;2023-10-31T01:49:25;2.78;;;1.90;;
70008;SDS011;59542;37.950;-122.338;2023-10-31T01:51:52;4.50;;;2.42;;
70008;SDS011;59542;37.950;-122.338;2023-10-31T01:54:18;5.72;;;2.70;;
70008;SDS011;59542;37.950;-122.338;2023-10-31T01:56:44;5.78;;;2.75;;
70008;SDS011;59542;37.950;-122.338;2023-10-31T01:59:13;5.45;;;2.90;;
70008;SDS011;59542;37.950;-122.338;2023-10-31T02:01:40;3.50;;;2.80;;
70008;SDS011;59542;37.950;-122.338;2023-10-31T02:04:07;2.65;;;2.38;;
70008;SDS011;59542;37.950;-122.338;2023-10-31T02:06:33;4.60;;;2.63;;
70008;SDS011;59542;37.950;-122.338;2023-10-31T02:09:00;5.38;;;2.58;;
70008;SDS011;59542;37.950;-122.338;2023-10-31T02:11:26;4.90;;;2.88;;
70008;SDS011;59542;37.950;-122.338;2023-10-31T02:13:52;5.35;;;2.90;;
70008;SDS011;59542;37.950;-122.338;2023-10-31T02:16:19;3.65;;;2.60;;
70008;SDS011;59542;37.950;-122.338;2023-10-31T02:18:45;6.13;;;3.22;;
70008;SDS011;59542;37.950;-122.338;2023-10-31T02:21:11;5.25;;;2.83;;
70008;SDS011;59542;37.950;-122.338;2023-10-31T02:23:38;3.50;;;2.45;;
70008;SDS011;59542;37.950;-122.338;2023-10-31T02:26:04;3.92;;;2.75;;
70008;SDS011;59542;37.950;-122.338;2023-10-31T02:28:31;4.30;;;2.97;;
70008;SDS011;59542;37.950;-122.338;2023-10-31T02:30:57;3.60;;;2.67;;
70008;SDS011;59542;37.950;-122.338;2023-10-31T02:33:23;4.55;;;3.25;;
70008;SDS011;59542;37.950;-122.338;2023-10-31T02:35:49;4.22;;;2.97;;
70008;SDS011;59542;37.950;-122.338;2023-10-31T02:38:16;6.25;;;3.30;;
70008;SDS011;59542;37.950;-122.338;2023-10-31T02:40:42;5.63;;;3.10;;
70008;SDS011;59542;37.950;-122.338;2023-10-31T02:43:08;5.88;;;4.07;;
70008;SDS011;59542;37.950;-122.338;2023-10-31T02:45:35;5.78;;;3.38;;
70008;SDS011;59542;37.950;-122.338;2023-10-31T02:48:01;4.78;;;3.22;;
70008;SDS011;59542;37.950;-122.338;2023-10-31T02:50:27;4.65;;;3.30;;
70008;SDS011;59542;37.950;-122.338;2023-10-31T02:52:53;5.00;;;3.20;;
70008;SDS011;59542;37.950;-122.338;2023-10-31T02:55:19;4.38;;;3.83;;
70008;SDS011;59542;37.950;-122.338;2023-10-31T02:57:46;7.38;;;4.03;;
70008;SDS011;59542;37.950;-122.338;2023-10-31T03:00:12;4.60;;;3.58;;
70008;SDS011;59542;37.950;-122.338;2023-10-31T03:02:39;7.15;;;4.32;;
70008;SDS011;59542;37.950;-122.338;2023-10-31T03:05:05;4.70;;;3.83;;
70008;SDS011;59542;37.950;-122.338;2023-10-31T03:07:32;7.07;;;3.75;;
70008;SDS011;59542;37.950;-122.338;2023-10-31T03:09:58;4.72;;;3.20;;
70008;SDS011;59542;37.950;-122.338;2023-10-31T03:12:24;3.97;;;2.88;;
70008;SDS011;59542;37.950;-122.338;2023-10-31T03:14:51;5.50;;;3.70;;
70008;SDS011;59542;37.950;-122.338;2023-10-31T03:17:17;4.55;;;3.10;;
70008;SDS011;59542;37.950;-122.338;2023-10-31T03:19:44;3.70;;;2.90;;
70008;SDS011;59542;37.950;-122.338;2023-10-31T03:22:10;4.97;;;3.58;;
70008;SDS011;59542;37.950;-122.338;2023-10-31T03:24:37;4.60;;;3.97;;
70008;SDS011;59542;37.950;-122.338;2023-10-31T03:27:03;9.30;;;4.07;;
70008;SDS011;59542;37.950;-122.338;2023-10-31T03:29:29;5.15;;;3.78;;
70008;SDS011;59542;37.950;-122.338;2023-10-31T03:31:55;5.13;;;3.70;;
70008;SDS011;59542;37.950;-122.338;2023-10-31T03:34:21;5.53;;;2.80;;
70008;SDS011;59542;37.950;-122.338;2023-10-31T03:36:48;4.35;;;2.65;;
70008;SDS011;59542;37.950;-122.338;2023-10-31T03:39:14;7.90;;;3.10;;
70008;SDS011;59542;37.950;-122.338;2023-10-31T03:41:40;3.83;;;3.05;;
70008;SDS011;59542;37.950;-122.338;2023-10-31T03:44:07;4.43;;;2.90;;
70008;SDS011;59542;37.950;-122.338;2023-10-31T03:46:34;5.28;;;2.95;;
70008;SDS011;59542;37.950;-122.338;2023-10-31T03:49:00;3.42;;;2.70;;
70008;SDS011;59542;37.950;-122.338;2023-10-31T03:51:26;7.38;;;3.53;;
70008;SDS011;59542;37.950;-122.338;2023-10-31T03:53:52;7.05;;;3.50;;
70008;SDS011;59542;37.950;-122.338;2023-10-31T03:56:19;6.00;;;3.70;;
70008;SDS011;59542;37.950;-122.338;2023-10-31T03:58:45;5.35;;;3.55;;
70008;SDS011;59542;37.950;-122.338;2023-10-31T04:01:11;5.38;;;3.83;;
70008;SDS011;59542;37.950;-122.338;2023-10-31T04:03:37;5.63;;;3.50;;
70008;SDS011;59542;37.950;-122.338;2023-10-31T04:06:04;3.35;;;2.78;;
70008;SDS011;59542;37.950;-122.338;2023-10-31T04:08:30;6.70;;;3.00;;
70008;SDS011;59542;37.950;-122.338;2023-10-31T04:10:56;4.22;;;3.63;;
70008;SDS011;59542;37.950;-122.338;2023-10-31T04:13:22;4.50;;;3.00;;
70008;SDS011;59542;37.950;-122.338;2023-10-31T04:15:49;4.00;;;3.05;;
70008;SDS011;59542;37.950;-122.338;2023-10-31T04:18:15;4.80;;;3.20;;
70008;SDS011;59542;37.950;-122.338;2023-10-31T04:20:42;4.57;;;2.85;;
70008;SDS011;59542;37.950;-122.338;2023-10-31T04:23:08;5.07;;;3.75;;
70008;SDS011;59542;37.950;-122.338;2023-10-31T04:25:37;6.07;;;3.30;;
70008;SDS011;59542;37.950;-122.338;2023-10-31T04:28:03;7.05;;;3.92;;
70008;SDS011;59542;37.950;-122.338;2023-10-31T04:30:29;4.45;;;3.53;;
70008;SDS011;59542;37.950;-122.338;2023-10-31T04:32:56;8.55;;;3.95;;
70008;SDS011;59542;37.950;-122.338;2023-10-31T04:35:22;7.97;;;4.30;;
70008;SDS011;59542;37.950;-122.338;2023-10-31T04:37:48;9.00;;;3.78;;
70008;SDS011;59542;37.950;-122.338;2023-10-31T04:40:14;7.50;;;3.28;;
70008;SDS011;59542;37.950;-122.338;2023-10-31T04:42:41;7.03;;;3.72;;
70008;SDS011;59542;37.950;-122.338;2023-10-31T04:45:08;8.05;;;4.13;;
70008;SDS011;59542;37.950;-122.338;2023-10-31T04:47:34;7.00;;;4.28;;
70008;SDS011;59542;37.950;-122.338;2023-10-31T04:50:00;5.90;;;3.67;;
70008;SDS011;59542;37.950;-122.338;2023-10-31T04:52:27;4.55;;;3.10;;
70008;SDS011;59542;37.950;-122.338;2023-10-31T04:54:53;4.25;;;3.53;;
70008;SDS011;59542;37.950;-122.338;2023-10-31T04:57:19;4.95;;;3.80;;
70008;SDS011;59542;37.950;-122.338;2023-10-31T04:59:45;6.55;;;3.83;;
70008;SDS011;59542;37.950;-122.338;2023-10-31T05:02:12;5.22;;;3.80;;
70008;SDS011;59542;37.950;-122.338;2023-10-31T05:04:38;5.25;;;3.53;;
70008;SDS011;59542;37.950;-122.338;2023-10-31T05:07:07;5.22;;;3.17;;
70008;SDS011;59542;37.950;-122.338;2023-10-31T05:09:33;8.93;;;3.33;;
70008;SDS011;59542;37.950;-122.338;2023-10-31T05:12:00;4.93;;;2.90;;
70008;SDS011;59542;37.950;-122.338;2023-10-31T05:14:26;4.72;;;3.42;;
70008;SDS011;59542;37.950;-122.338;2023-10-31T05:16:53;5.95;;;4.13;;
70008;SDS011;59542;37.950;-122.338;2023-10-31T05:19:19;4.80;;;3.78;;
70008;SDS011;59542;37.950;-122.338;2023-10-31T05:21:45;5.05;;;3.83;;
70008;SDS011;59542;37.950;-122.338;2023-10-31T05:24:12;9.10;;;3.72;;
70008;SDS011;59542;37.950;-122.338;2023-10-31T05:26:39;5.32;;;3.63;;
70008;SDS011;59542;37.950;-122.338;2023-10-31T05:29:08;6.00;;;3.97;;
70008;SDS011;59542;37.950;-122.338;2023-10-31T05:31:34;4.70;;;3.05;;
70008;SDS011;59542;37.950;-122.338;2023-10-31T05:34:01;4.57;;;3.47;;
70008;SDS011;59542;37.950;-122.338;2023-10-31T05:36:29;4.57;;;3.08;;
70008;SDS011;59542;37.950;-122.338;2023-10-31T05:38:55;5.53;;;3.45;;
70008;SDS011;59542;37.950;-122.338;2023-10-31T05:41:21;5.65;;;3.45;;
70008;SDS011;59542;37.950;-122.338;2023-10-31T05:43:48;7.45;;;4.18;;
70008;SDS011;59542;37.950;-122.338;2023-10-31T05:46:14;5.20;;;3.22;;
70008;SDS011;59542;37.950;-122.338;2023-10-31T05:48:43;5.60;;;3.40;;
70008;SDS011;59542;37.950;-122.338;2023-10-31T05:51:11;3.75;;;2.88;;
70008;SDS011;59542;37.950;-122.338;2023-10-31T05:53:41;3.25;;;2.70;;
70008;SDS011;59542;37.950;-122.338;2023-10-31T05:56:08;3.60;;;2.80;;
70008;SDS011;59542;37.950;-122.338;2023-10-31T05:58:36;3.50;;;2.90;;
70008;SDS011;59542;37.950;-122.338;2023-10-31T06:01:03;4.30;;;2.97;;
70008;SDS011;59542;37.950;-122.338;2023-10-31T06:03:29;5.00;;;3.25;;
70008;SDS011;59542;37.950;-122.338;2023-10-31T06:05:56;4.07;;;2.83;;
70008;SDS011;59542;37.950;-122.338;2023-10-31T06:08:22;3.58;;;3.28;;
70008;SDS011;59542;37.950;-122.338;2023-10-31T06:10:50;3.92;;;3.00;;
70008;SDS011;59542;37.950;-122.338;2023-10-31T06:13:16;3.95;;;2.75;;
70008;SDS011;59542;37.950;-122.338;2023-10-31T06:15:42;5.13;;;3.13;;
70008;SDS011;59542;37.950;-122.338;2023-10-31T06:18:09;4.88;;;3.13;;
70008;SDS011;59542;37.950;-122.338;2023-10-31T06:20:36;4.50;;;2.95;;
70008;SDS011;59542;37.950;-122.338;2023-10-31T06:23:02;3.45;;;2.50;;
70008;SDS011;59542;37.950;-122.338;2023-10-31T06:25:31;3.25;;;2.60;;
70008;SDS011;59542;37.950;-122.338;2023-10-31T06:27:57;3.55;;;2.80;;
70008;SDS011;59542;37.950;-122.338;2023-10-31T06:30:23;3.28;;;2.75;;
70008;SDS011;59542;37.950;-122.338;2023-10-31T06:32:53;8.35;;;3.15;;
70008;SDS011;59542;37.950;-122.338;2023-10-31T06:35:20;7.60;;;3.00;;
70008;SDS011;59542;37.950;-122.338;2023-10-31T06:37:46;8.13;;;3.50;;
70008;SDS011;59542;37.950;-122.338;2023-10-31T06:40:12;7.03;;;3.97;;
70008;SDS011;59542;37.950;-122.338;2023-10-31T06:42:39;5.15;;;4.25;;
70008;SDS011;59542;37.950;-122.338;2023-10-31T06:45:05;6.05;;;3.42;;
70008;SDS011;59542;37.950;-122.338;2023-10-31T06:47:32;5.68;;;4.13;;
70008;SDS011;59542;37.950;-122.338;2023-10-31T06:49:58;6.03;;;4.63;;
70008;SDS011;59542;37.950;-122.338;2023-10-31T06:52:25;6.18;;;5.00;;
70008;SDS011;59542;37.950;-122.338;2023-10-31T06:54:51;8.32;;;5.38;;
70008;SDS011;59542;37.950;-122.338;2023-10-31T06:57:17;7.70;;;4.80;;
70008;SDS011;59542;37.950;-122.338;2023-10-31T06:59:44;6.20;;;5.03;;
70008;SDS011;59542;37.950;-122.338;2023-10-31T07:02:11;6.90;;;4.78;;
70008;SDS011;59542;37.950;-122.338;2023-10-31T07:04:37;4.55;;;4.10;;
70008;SDS011;59542;37.950;-122.338;2023-10-31T07:07:03;6.32;;;3.97;;
70008;SDS011;59542;37.950;-122.338;2023-10-31T07:09:30;4.38;;;3.45;;
70008;SDS011;59542;37.950;-122.338;2023-10-31T07:11:56;4.10;;;3.15;;
70008;SDS011;59542;37.950;-122.338;2023-10-31T07:14:22;3.13;;;2.53;;
70008;SDS011;59542;37.950;-122.338;2023-10-31T07:16:48;3.20;;;2.80;;
70008;SDS011;59542;37.950;-122.338;2023-10-31T07:19:15;3.75;;;2.90;;
70008;SDS011;59542;37.950;-122.338;2023-10-31T07:21:41;3.35;;;2.58;;
70008;SDS011;59542;37.950;-122.338;2023-10-31T07:24:07;3.78;;;2.50;;
70008;SDS011;59542;37.950;-122.338;2023-10-31T07:26:35;4.50;;;2.60;;
70008;SDS011;59542;37.950;-122.338;2023-10-31T07:29:01;2.88;;;2.00;;
70008;SDS011;59542;37.950;-122.338;2023-10-31T07:31:27;3.95;;;2.47;;
70008;SDS011;59542;37.950;-122.338;2023-10-31T07:33:54;3.33;;;2.42;;
70008;SDS011;59542;37.950;-122.338;2023-10-31T07:36:21;3.10;;;2.42;;
70008;SDS011;59542;37.950;-122.338;2023-10-31T07:38:47;3.22;;;2.17;;
70008;SDS011;59542;37.950;-122.338;2023-10-31T07:41:14;3.95;;;2.67;;
70008;SDS011;59542;37.950;-122.338;2023-10-31T07:43:40;3.25;;;2.20;;
70008;SDS011;59542;37.950;-122.338;2023-10-31T07:46:06;3.30;;;2.53;;
70008;SDS011;59542;37.950;-122.338;2023-10-31T07:48:32;3.42;;;2.38;;
70008;SDS011;59542;37.950;-122.338;2023-10-31T07:50:59;3.13;;;2.40;;
70008;SDS011;59542;37.950;-122.338;2023-10-31T07:53:25;4.40;;;2.20;;
70008;SDS011;59542;37.950;-122.338;2023-10-31T07:55:51;4.70;;;2.67;;
70008;SDS011;59542;37.950;-122.338;2023-10-31T07:58:17;3.63;;;2.63;;
70008;SDS011;59542;37.950;-122.338;2023-10-31T08:00:43;3.25;;;2.35;;
70008;SDS011;59542;37.950;-122.338;2023-10-31T08:03:10;3.95;;;2.30;;
70008;SDS011;59542;37.950;-122.338;2023-10-31T08:05:36;5.32;;;2.30;;
70008;SDS011;59542;37.950;-122.338;2023-10-31T08:08:02;3.38;;;2.63;;
70008;SDS011;59542;37.950;-122.338;2023-10-31T08:10:29;3.10;;;2.58;;
70008;SDS011;59542;37.950;-122.338;2023-10-31T08:12:55;4.53;;;2.83;;
70008;SDS011;59542;37.950;-122.338;2023-10-31T08:15:21;5.65;;;3.08;;
70008;SDS011;59542;37.950;-122.338;2023-10-31T08:17:48;6.22;;;5.63;;
70008;SDS011;59542;37.950;-122.338;2023-10-31T08:20:14;6.95;;;5.90;;
70008;SDS011;59542;37.950;-122.338;2023-10-31T08:22:40;7.85;;;5.28;;
70008;SDS011;59542;37.950;-122.338;2023-10-31T08:25:10;6.00;;;4.35;;
70008;SDS011;59542;37.950;-122.338;2023-10-31T08:27:36;3.97;;;3.58;;
70008;SDS011;59542;37.950;-122.338;2023-10-31T08:30:02;5.75;;;3.80;;
70008;SDS011;59542;37.950;-122.338;2023-10-31T08:32:29;5.28;;;2.67;;
70008;SDS011;59542;37.950;-122.338;2023-10-31T08:34:55;3.22;;;2.50;;
70008;SDS011;59542;37.950;-122.338;2023-10-31T08:37:23;2.83;;;2.53;;
70008;SDS011;59542;37.950;-122.338;2023-10-31T08:39:49;3.40;;;2.20;;
70008;SDS011;59542;37.950;-122.338;2023-10-31T08:42:15;3.90;;;2.22;;
70008;SDS011;59542;37.950;-122.338;2023-10-31T08:44:42;4.10;;;2.55;;
70008;SDS011;59542;37.950;-122.338;2023-10-31T08:47:08;3.75;;;2.40;;
70008;SDS011;59542;37.950;-122.338;2023-10-31T08:49:34;4.32;;;2.58;;
70008;SDS011;59542;37.950;-122.338;2023-10-31T08:52:01;2.38;;;2.00;;
70008;SDS011;59542;37.950;-122.338;2023-10-31T08:54:29;3.38;;;2.17;;
70008;SDS011;59542;37.950;-122.338;2023-10-31T08:56:55;4.78;;;2.50;;
70008;SDS011;59542;37.950;-122.338;2023-10-31T08:59:21;2.95;;;2.40;;
70008;SDS011;59542;37.950;-122.338;2023-10-31T09:01:48;2.80;;;2.10;;
70008;SDS011;59542;37.950;-122.338;2023-10-31T09:04:14;3.88;;;2.08;;
70008;SDS011;59542;37.950;-122.338;2023-10-31T09:06:40;2.42;;;1.85;;
70008;SDS011;59542;37.950;-122.338;2023-10-31T09:09:07;2.67;;;2.28;;
70008;SDS011;59542;37.950;-122.338;2023-10-31T09:11:35;6.03;;;2.45;;
70008;SDS011;59542;37.950;-122.338;2023-10-31T09:14:01;3.35;;;2.20;;
70008;SDS011;59542;37.950;-122.338;2023-10-31T09:16:28;3.60;;;2.08;;
70008;SDS011;59542;37.950;-122.338;2023-10-31T09:18:54;4.15;;;2.30;;
70008;SDS011;59542;37.950;-122.338;2023-10-31T09:21:20;3.40;;;2.22;;
70008;SDS011;59542;37.950;-122.338;2023-10-31T09:23:47;2.55;;;1.92;;
70008;SDS011;59542;37.950;-122.338;2023-10-31T09:26:13;2.30;;;2.00;;
70008;SDS011;59542;37.950;-122.338;2023-10-31T09:28:39;2.47;;;1.95;;
70008;SDS011;59542;37.950;-122.338;2023-10-31T09:31:16;2.40;;;1.83;;
70008;SDS011;59542;37.950;-122.338;2023-10-31T09:33:43;2.97;;;2.00;;
70008;SDS011;59542;37.950;-122.338;2023-10-31T09:36:10;4.38;;;1.90;;
70008;SDS011;59542;37.950;-122.338;2023-10-31T09:38:36;2.63;;;2.00;;
70008;SDS011;59542;37.950;-122.338;2023-10-31T09:41:03;3.70;;;2.08;;
70008;SDS011;59542;37.950;-122.338;2023-10-31T09:43:29;4.85;;;2.30;;
70008;SDS011;59542;37.950;-122.338;2023-10-31T09:45:57;5.25;;;2.03;;
70008;SDS011;59542;37.950;-122.338;2023-10-31T09:48:25;3.92;;;2.20;;
70008;SDS011;59542;37.950;-122.338;2023-10-31T09:50:52;3.50;;;2.35;;
70008;SDS011;59542;37.950;-122.338;2023-10-31T09:53:19;6.43;;;2.65;;
70008;SDS011;59542;37.950;-122.338;2023-10-31T09:55:48;5.13;;;2.65;;
70008;SDS011;59542;37.950;-122.338;2023-10-31T09:58:15;4.20;;;2.40;;
70008;SDS011;59542;37.950;-122.338;2023-10-31T10:00:42;4.80;;;2.35;;
70008;SDS011;59542;37.950;-122.338;2023-10-31T10:03:08;4.00;;;3.03;;
70008;SDS011;59542;37.950;-122.338;2023-10-31T10:05:35;5.30;;;2.58;;
70008;SDS011;59542;37.950;-122.338;2023-10-31T10:08:06;5.85;;;2.80;;
70008;SDS011;59542;37.950;-122.338;2023-10-31T10:10:35;5.22;;;2.75;;
70008;SDS011;59542;37.950;-122.338;2023-10-31T10:13:02;5.28;;;2.20;;
70008;SDS011;59542;37.950;-122.338;2023-10-31T10:15:28;3.53;;;2.38;;
70008;SDS011;59542;37.950;-122.338;2023-10-31T10:17:55;5.13;;;2.65;;
70008;SDS011;59542;37.950;-122.338;2023-10-31T10:20:21;3.83;;;2.03;;
70008;SDS011;59542;37.950;-122.338;2023-10-31T10:22:47;3.28;;;2.25;;
70008;SDS011;59542;37.950;-122.338;2023-10-31T10:25:14;3.47;;;2.53;;
70008;SDS011;59542;37.950;-122.338;2023-10-31T10:27:42;2.97;;;2.20;;
70008;SDS011;59542;37.950;-122.338;2023-10-31T10:30:09;4.65;;;2.33;;
70008;SDS011;59542;37.950;-122.338;2023-10-31T10:32:39;3.47;;;1.90;;
70008;SDS011;59542;37.950;-122.338;2023-10-31T10:35:06;3.88;;;2.15;;
70008;SDS011;59542;37.950;-122.338;2023-10-31T10:37:35;2.75;;;2.15;;
70008;SDS011;59542;37.950;-122.338;2023-10-31T10:40:03;3.95;;;2.13;;
70008;SDS011;59542;37.950;-122.338;2023-10-31T10:42:33;3.60;;;2.90;;
70008;SDS011;59542;37.950;-122.338;2023-10-31T10:45:16;3.88;;;3.10;;
70008;SDS011;59542;37.950;-122.338;2023-10-31T10:47:45;3.35;;;2.45;;
70008;SDS011;59542;37.950;-122.338;2023-10-31T10:50:13;4.65;;;2.60;;
70008;SDS011;59542;37.950;-122.338;2023-10-31T10:52:44;3.72;;;2.42;;
70008;SDS011;59542;37.950;-122.338;2023-10-31T10:55:24;18.30;;;10.40;;
70008;SDS011;59542;37.950;-122.338;2023-10-31T10:57:52;12.50;;;8.13;;
70008;SDS011;59542;37.950;-122.338;2023-10-31T11:00:26;8.52;;;6.65;;
70008;SDS011;59542;37.950;-122.338;2023-10-31T11:02:55;8.57;;;5.30;;
70008;SDS011;59542;37.950;-122.338;2023-10-31T11:05:23;7.85;;;5.00;;
70008;SDS011;59542;37.950;-122.338;2023-10-31T11:07:51;8.88;;;5.15;;
70008;SDS011;59542;37.950;-122.338;2023-10-31T11:10:19;6.32;;;4.05;;
70008;SDS011;59542;37.950;-122.338;2023-10-31T11:12:46;6.80;;;4.07;;
70008;SDS011;59542;37.950;-122.338;2023-10-31T11:15:15;7.85;;;4.57;;
70008;SDS011;59542;37.950;-122.338;2023-10-31T11:17:44;6.28;;;4.15;;
70008;SDS011;59542;37.950;-122.338;2023-10-31T11:20:13;6.88;;;3.90;;
70008;SDS011;59542;37.950;-122.338;2023-10-31T11:22:44;4.80;;;3.28;;
70008;SDS011;59542;37.950;-122.338;2023-10-31T11:25:21;6.95;;;3.42;;
70008;SDS011;59542;37.950;-122.338;2023-10-31T11:27:51;5.30;;;2.85;;
70008;SDS011;59542;37.950;-122.338;2023-10-31T11:32:54;4.57;;;2.70;;
70008;SDS011;59542;37.950;-122.338;2023-10-31T11:35:23;6.47;;;2.72;;
70008;SDS011;59542;37.950;-122.338;2023-10-31T11:37:49;3.08;;;2.17;;
70008;SDS011;59542;37.950;-122.338;2023-10-31T11:40:30;3.03;;;2.72;;
70008;SDS011;59542;37.950;-122.338;2023-10-31T11:42:57;3.55;;;2.20;;
70008;SDS011;59542;37.950;-122.338;2023-10-31T11:48:07;4.15;;;2.40;;
70008;SDS011;59542;37.950;-122.338;2023-10-31T11:50:35;2.78;;;2.20;;
70008;SDS011;59542;37.950;-122.338;2023-10-31T11:53:07;2.95;;;2.13;;
70008;SDS011;59542;37.950;-122.338;2023-10-31T11:55:40;2.70;;;2.40;;
70008;SDS011;59542;37.950;-122.338;2023-10-31T11:58:21;2.58;;;2.17;;
70008;SDS011;59542;37.950;-122.338;2023-10-31T12:01:00;3.80;;;2.65;;
70008;SDS011;59542;37.950;-122.338;2023-10-31T12:03:35;4.78;;;2.42;;
70008;SDS011;59542;37.950;-122.338;2023-10-31T12:06:06;3.92;;;2.00;;
70008;SDS011;59542;37.950;-122.338;2023-10-31T12:08:35;3.10;;;1.95;;
70008;SDS011;59542;37.950;-122.338;2023-10-31T12:11:09;4.28;;;2.50;;
70008;SDS011;59542;37.950;-122.338;2023-10-31T12:13:53;4.00;;;2.28;;
70008;SDS011;59542;37.950;-122.338;2023-10-31T12:16:32;3.30;;;2.50;;
70008;SDS011;59542;37.950;-122.338;2023-10-31T12:19:00;8.30;;;2.47;;
70008;SDS011;59542;37.950;-122.338;2023-10-31T12:24:12;3.75;;;2.35;;
70008;SDS011;59542;37.950;-122.338;2023-10-31T12:26:40;3.60;;;2.15;;
70008;SDS011;59542;37.950;-122.338;2023-10-31T12:31:33;3.63;;;2.42;;
70008;SDS011;59542;37.950;-122.338;2023-10-31T12:34:06;4.55;;;2.33;;
70008;SDS011;59542;37.950;-122.338;2023-10-31T12:36:33;4.25;;;2.75;;
70008;SDS011;59542;37.950;-122.338;2023-10-31T12:39:01;4.28;;;2.53;;
70008;SDS011;59542;37.950;-122.338;2023-10-31T12:41:28;4.20;;;2.28;;
70008;SDS011;59542;37.950;-122.338;2023-10-31T12:43:55;2.97;;;2.05;;
70008;SDS011;59542;37.950;-122.338;2023-10-31T12:46:28;3.95;;;2.55;;
70008;SDS011;59542;37.950;-122.338;2023-10-31T12:48:58;4.55;;;2.40;;
70008;SDS011;59542;37.950;-122.338;2023-10-31T12:51:25;4.75;;;2.88;;
70008;SDS011;59542;37.950;-122.338;2023-10-31T12:53:51;3.63;;;2.35;;
70008;SDS011;59542;37.950;-122.338;2023-10-31T12:59:08;7.93;;;2.50;;
70008;SDS011;59542;37.950;-122.338;2023-10-31T13:01:36;8.75;;;2.83;;
70008;SDS011;59542;37.950;-122.338;2023-10-31T13:04:07;4.47;;;2.50;;
70008;SDS011;59542;37.950;-122.338;2023-10-31T13:06:35;4.18;;;2.60;;
70008;SDS011;59542;37.950;-122.338;2023-10-31T13:09:01;5.38;;;2.67;;
70008;SDS011;59542;37.950;-122.338;2023-10-31T13:11:31;8.50;;;2.88;;
70008;SDS011;59542;37.950;-122.338;2023-10-31T13:13:57;4.15;;;2.70;;
70008;SDS011;59542;37.950;-122.338;2023-10-31T13:16:24;4.70;;;2.80;;
70008;SDS011;59542;37.950;-122.338;2023-10-31T13:18:53;2.58;;;2.25;;
70008;SDS011;59542;37.950;-122.338;2023-10-31T13:21:20;3.45;;;2.53;;
70008;SDS011;59542;37.950;-122.338;2023-10-31T13:23:46;4.10;;;2.47;;
70008;SDS011;59542;37.950;-122.338;2023-10-31T13:26:14;3.30;;;2.90;;
70008;SDS011;59542;37.950;-122.338;2023-10-31T13:28:40;3.90;;;2.60;;
70008;SDS011;59542;37.950;-122.338;2023-10-31T13:31:06;4.85;;;2.78;;
70008;SDS011;59542;37.950;-122.338;2023-10-31T13:33:33;3.95;;;2.63;;
70008;SDS011;59542;37.950;-122.338;2023-10-31T13:36:00;4.82;;;2.95;;
70008;SDS011;59542;37.950;-122.338;2023-10-31T13:38:26;8.32;;;5.40;;
70008;SDS011;59542;37.950;-122.338;2023-10-31T13:40:53;9.15;;;4.78;;
70008;SDS011;59542;37.950;-122.338;2023-10-31T13:43:19;7.47;;;3.38;;
70008;SDS011;59542;37.950;-122.338;2023-10-31T13:45:45;6.47;;;3.13;;
70008;SDS011;59542;37.950;-122.338;2023-10-31T13:48:11;9.05;;;6.47;;
70008;SDS011;59542;37.950;-122.338;2023-10-31T13:50:39;7.55;;;4.03;;
70008;SDS011;59542;37.950;-122.338;2023-10-31T13:53:08;3.72;;;2.83;;
70008;SDS011;59542;37.950;-122.338;2023-10-31T13:55:34;6.15;;;3.42;;
70008;SDS011;59542;37.950;-122.338;2023-10-31T13:58:00;5.70;;;3.47;;
70008;SDS011;59542;37.950;-122.338;2023-10-31T14:00:26;4.90;;;3.10;;
70008;SDS011;59542;37.950;-122.338;2023-10-31T14:02:53;6.30;;;3.35;;
70008;SDS011;59542;37.950;-122.338;2023-10-31T14:05:19;4.38;;;3.17;;
70008;SDS011;59542;37.950;-122.338;2023-10-31T14:07:45;5.32;;;3.47;;
70008;SDS011;59542;37.950;-122.338;2023-10-31T14:10:12;6.47;;;3.20;;
70008;SDS011;59542;37.950;-122.338;2023-10-31T14:12:38;4.90;;;3.28;;
70008;SDS011;59542;37.950;-122.338;2023-10-31T14:15:05;5.63;;;3.47;;
70008;SDS011;59542;37.950;-122.338;2023-10-31T14:17:32;5.05;;;3.45;;
70008;SDS011;59542;37.950;-122.338;2023-10-31T14:19:58;4.95;;;3.42;;
70008;SDS011;59542;37.950;-122.338;2023-10-31T14:22:24;4.45;;;3.75;;